Time;durP1;ratioP1;P1;durP2;ratioP2;P2;SDS_P1;SDS_P2;PMS_P1;PMS_P2;Temp;Humidity;BMP_temperature;BMP_pressure;BME280_temperature;BME280_humidity;BME280_pressure;Samples;Min_cycle;Max_cycle;Signal;HPM_P1;HPM_P2
2023/09/28 00:00:46;;;;;;;6.70;2.57;;;19.80;99.90;;;;;;4995723;28;20232;-72
2023/09/28 00:03:13;;;;;;;4.67;1.80;;;19.90;99.90;;;;;;4995736;28;20180;-73
2023/09/28 00:05:41;;;;;;;5.13;2.23;;;20.00;99.90;;;;;;4995800;28;20182;-67
2023/09/28 00:08:08;;;;;;;7.37;1.67;;;20.00;99.90;;;;;;4995085;28;20258;-66
2023/09/28 00:10:36;;;;;;;4.53;1.93;;;20.10;99.90;;;;;;4995846;28;20267;-70
2023/09/28 00:13:03;;;;;;;15.27;2.37;;;20.30;99.90;;;;;;4995700;28;20198;-71
2023/09/28 00:15:31;;;;;;;4.47;2.47;;;20.30;99.90;;;;;;4995395;28;20186;-70
2023/09/28 00:17:58;;;;;;;7.90;2.30;;;20.40;99.90;;;;;;4992290;28;20198;-71
2023/09/28 00:20:27;;;;;;;4.40;1.73;;;20.50;99.90;;;;;;4976035;28;20220;-69
2023/09/28 00:22:56;;;;;;;5.23;2.20;;;20.80;99.90;;;;;;4975394;28;20573;-69
2023/09/28 00:25:24;;;;;;;3.90;1.70;;;21.20;99.90;;;;;;4975882;28;20232;-69
2023/09/28 00:27:58;;;;;;;7.23;2.10;;;21.50;99.90;;;;;;4976063;28;20210;-71
2023/09/28 00:30:26;;;;;;;5.60;2.57;;;21.90;99.90;;;;;;4964640;28;20186;-70
2023/09/28 00:32:55;;;;;;;7.43;2.40;;;22.00;99.90;;;;;;4995478;28;20818;-66
2023/09/28 00:35:23;;;;;;;7.33;2.37;;;22.10;99.90;;;;;;4995419;28;20264;-65
2023/09/28 00:37:51;;;;;;;6.20;2.27;;;22.30;99.90;;;;;;4994899;28;20209;-68
2023/09/28 00:40:31;;;;;;;3.80;1.87;;;22.30;99.90;;;;;;4994917;28;20181;-65
2023/09/28 00:43:00;;;;;;;2.93;2.30;;;22.50;99.90;;;;;;4984695;28;20193;-68
2023/09/28 00:45:28;;;;;;;5.57;2.17;;;22.40;99.90;;;;;;4982749;28;20189;-68
2023/09/28 00:48:02;;;;;;;5.80;1.80;;;22.30;99.90;;;;;;4994799;28;20240;-68
2023/09/28 00:50:33;;;;;;;6.60;2.43;;;22.00;99.90;;;;;;4996209;28;20175;-68
2023/09/28 00:53:08;;;;;;;5.17;2.23;;;21.80;99.90;;;;;;4977240;28;20194;-68
2023/09/28 00:55:39;;;;;;;9.40;2.50;;;21.90;99.90;;;;;;4976875;28;20180;-68
2023/09/28 00:58:09;;;;;;;6.27;2.03;;;22.00;99.90;;;;;;4976412;28;20190;-69
2023/09/28 01:00:38;;;;;;;7.90;2.50;;;22.30;99.90;;;;;;4976286;28;20524;-69
2023/09/28 01:03:06;;;;;;;5.67;2.20;;;22.50;99.90;;;;;;4978457;28;20183;-68
2023/09/28 01:05:34;;;;;;;6.40;2.27;;;22.50;99.90;;;;;;4995993;28;20205;-68
2023/09/28 01:08:18;;;;;;;5.20;1.97;;;22.60;99.90;;;;;;4985717;28;20303;-68
2023/09/28 01:10:45;;;;;;;8.60;2.23;;;22.40;99.90;;;;;;4994192;28;20190;-68
2023/09/28 01:13:20;;;;;;;7.00;2.00;;;22.30;99.90;;;;;;4993851;28;20596;-68
2023/09/28 01:15:52;;;;;;;6.17;2.17;;;22.30;99.90;;;;;;4988373;28;20198;-68
2023/09/28 01:18:22;;;;;;;7.07;2.23;;;22.40;99.90;;;;;;4975220;28;20183;-68
2023/09/28 01:20:51;;;;;;;10.43;2.00;;;22.80;99.90;;;;;;4975054;28;20195;-68
2023/09/28 01:23:19;;;;;;;9.60;2.40;;;23.30;99.90;;;;;;4957383;28;20187;-69
2023/09/28 01:25:47;;;;;;;4.47;2.10;;;23.90;99.90;;;;;;4990757;28;20226;-68
2023/09/28 01:28:16;;;;;;;5.87;2.30;;;24.20;99.90;;;;;;4994457;28;20234;-69
2023/09/28 01:30:44;;;;;;;7.30;3.07;;;24.10;99.90;;;;;;4993843;28;20248;-68
2023/09/28 01:33:12;;;;;;;7.20;2.17;;;24.10;99.90;;;;;;4994317;28;20186;-68
2023/09/28 01:35:40;;;;;;;6.60;2.63;;;24.00;99.90;;;;;;4976291;28;20188;-69
2023/09/28 01:38:19;;;;;;;8.93;2.50;;;23.80;99.90;;;;;;4974421;28;20204;-68
2023/09/28 01:40:48;;;;;;;5.20;2.00;;;23.70;99.90;;;;;;4957581;28;20218;-68
2023/09/28 01:43:19;;;;;;;7.10;2.40;;;23.50;99.90;;;;;;4974567;28;20187;-68
2023/09/28 01:45:47;;;;;;;9.57;2.47;;;23.50;99.90;;;;;;4975216;28;20191;-68
2023/09/28 01:48:15;;;;;;;5.13;2.40;;;23.30;99.90;;;;;;4974724;28;20211;-69
2023/09/28 01:50:43;;;;;;;4.90;2.00;;;23.00;99.90;;;;;;4974444;28;20274;-67
2023/09/28 01:53:10;;;;;;;6.33;2.20;;;22.40;99.90;;;;;;4974031;28;20269;-67
2023/09/28 01:55:37;;;;;;;5.10;2.23;;;22.50;99.90;;;;;;4975291;28;20671;-67
2023/09/28 01:58:07;;;;;;;7.00;2.53;;;22.30;99.90;;;;;;4976255;28;20657;-69
2023/09/28 02:00:38;;;;;;;9.30;2.63;;;21.70;99.90;;;;;;4992391;28;20178;-68
2023/09/28 02:03:08;;;;;;;7.83;2.37;;;21.50;99.90;;;;;;4993419;28;20194;-68
2023/09/28 02:05:35;;;;;;;5.30;2.10;;;21.70;99.90;;;;;;4992937;28;20191;-68
2023/09/28 02:08:05;;;;;;;5.70;2.43;;;21.50;99.90;;;;;;4993031;28;20213;-68
2023/09/28 02:10:33;;;;;;;9.03;2.10;;;21.70;99.90;;;;;;4993474;28;20542;-68
2023/09/28 02:13:01;;;;;;;5.40;2.13;;;21.90;99.90;;;;;;4984045;28;20187;-68
2023/09/28 02:15:28;;;;;;;5.03;2.07;;;22.00;99.90;;;;;;4973806;28;20193;-68
2023/09/28 02:17:55;;;;;;;5.73;2.50;;;22.30;99.90;;;;;;4992670;28;20193;-68
2023/09/28 02:23:46;;;;;;;5.33;2.33;;;22.40;99.90;;;;;;4992803;28;20747;-69
2023/09/28 02:26:14;;;;;;;5.23;2.30;;;22.70;99.90;;;;;;4990712;28;20186;-68
2023/09/28 02:28:41;;;;;;;5.63;1.80;;;22.60;99.90;;;;;;4973384;28;20566;-68
2023/09/28 02:31:09;;;;;;;5.40;2.27;;;22.50;99.90;;;;;;4973814;28;20209;-68
2023/09/28 02:33:36;;;;;;;7.57;1.97;;;22.40;99.90;;;;;;4969027;28;20217;-68
2023/09/28 02:36:03;;;;;;;5.47;2.00;;;22.40;99.90;;;;;;4992891;28;20189;-68
2023/09/28 02:38:31;;;;;;;6.07;2.27;;;22.60;99.90;;;;;;4993093;28;20186;-69
2023/09/28 02:40:58;;;;;;;9.33;2.13;;;22.70;99.90;;;;;;4984169;28;20198;-68
2023/09/28 02:43:27;;;;;;;5.63;2.27;;;22.90;99.90;;;;;;4985176;28;20284;-68
2023/09/28 02:45:55;;;;;;;7.07;1.80;;;22.80;99.90;;;;;;4992256;28;20534;-68
2023/09/28 02:48:23;;;;;;;6.47;2.17;;;22.80;99.90;;;;;;4992874;28;20588;-68
2023/09/28 02:50:51;;;;;;;6.70;2.13;;;22.70;99.90;;;;;;4992637;28;20254;-68
2023/09/28 02:53:18;;;;;;;4.40;2.00;;;22.90;99.90;;;;;;4981645;28;20273;-69
2023/09/28 02:55:46;;;;;;;5.53;2.00;;;22.80;99.90;;;;;;4976420;28;20285;-69
2023/09/28 02:58:13;;;;;;;10.30;2.00;;;22.40;99.90;;;;;;4992435;28;20751;-69
2023/09/28 03:00:40;;;;;;;2.83;1.57;;;22.60;99.90;;;;;;4992576;28;20277;-69
2023/09/28 03:03:09;;;;;;;5.53;2.10;;;22.70;99.90;;;;;;4992589;28;20628;-69
2023/09/28 03:05:40;;;;;;;7.93;1.80;;;22.80;99.90;;;;;;4990901;28;20182;-68
2023/09/28 03:08:09;;;;;;;5.97;1.97;;;23.20;99.90;;;;;;4992369;28;20308;-68
2023/09/28 03:10:42;;;;;;;7.63;1.77;;;23.30;99.90;;;;;;4992433;28;20191;-69
2023/09/28 03:13:11;;;;;;;4.27;2.17;;;23.30;99.90;;;;;;4991938;28;20194;-69
2023/09/28 03:15:43;;;;;;;6.47;2.50;;;23.50;99.90;;;;;;4991351;28;20201;-68
2023/09/28 03:18:14;;;;;;;5.40;2.00;;;22.90;99.90;;;;;;4973256;28;20551;-68
2023/09/28 03:20:44;;;;;;;3.87;1.80;;;23.00;99.90;;;;;;4972774;28;20226;-68
2023/09/28 03:23:12;;;;;;;3.27;1.90;;;23.20;99.90;;;;;;4972857;28;20297;-70
2023/09/28 03:25:40;;;;;;;7.17;2.30;;;23.10;99.90;;;;;;4973964;28;20718;-68
2023/09/28 03:28:07;;;;;;;4.37;2.23;;;22.90;99.90;;;;;;4972455;28;20586;-68
2023/09/28 03:30:34;;;;;;;3.73;2.07;;;22.70;99.90;;;;;;4973132;28;20178;-70
2023/09/28 03:33:02;;;;;;;6.60;2.83;;;23.60;99.90;;;;;;4985953;28;20554;-71
2023/09/28 03:35:31;;;;;;;8.07;2.13;;;24.20;99.90;;;;;;4955136;28;20273;-68
2023/09/28 03:37:58;;;;;;;14.40;2.80;;;24.60;99.90;;;;;;4973080;28;20238;-69
2023/09/28 03:40:33;;;;;;;7.47;2.40;;;25.00;99.90;;;;;;4972840;28;20186;-67
2023/09/28 03:43:03;;;;;;;6.33;2.50;;;25.10;99.90;;;;;;4972626;28;20182;-71
2023/09/28 03:45:30;;;;;;;9.73;2.50;;;25.10;99.90;;;;;;4973510;28;20198;-70
2023/09/28 03:47:58;;;;;;;6.00;2.30;;;24.90;99.90;;;;;;4993062;28;20214;-70
2023/09/28 03:50:25;;;;;;;5.13;2.30;;;24.80;99.90;;;;;;4992965;28;20281;-69
2023/09/28 03:52:53;;;;;;;7.53;3.13;;;24.40;99.90;;;;;;4993379;28;20193;-70
2023/09/28 03:55:24;;;;;;;6.97;2.53;;;23.80;99.90;;;;;;4993243;28;20174;-70
2023/09/28 03:57:52;;;;;;;7.87;2.63;;;23.80;99.90;;;;;;4974139;28;20586;-69
2023/09/28 04:00:20;;;;;;;7.47;2.97;;;23.70;99.90;;;;;;4980569;28;20186;-70
2023/09/28 04:02:52;;;;;;;7.47;2.60;;;23.50;99.90;;;;;;4993392;28;20174;-70
2023/09/28 04:05:20;;;;;;;6.53;2.53;;;23.60;99.90;;;;;;4993064;28;20194;-69
2023/09/28 04:07:48;;;;;;;4.83;2.37;;;24.30;99.90;;;;;;4974118;28;20302;-69
2023/09/28 04:10:15;;;;;;;8.83;2.17;;;24.20;99.90;;;;;;4974006;28;20229;-69
2023/09/28 04:12:42;;;;;;;7.03;2.13;;;23.90;99.90;;;;;;4973845;28;20213;-69
2023/09/28 04:15:10;;;;;;;5.27;2.00;;;23.70;99.90;;;;;;4973627;28;20196;-70
2023/09/28 04:17:37;;;;;;;8.93;2.23;;;23.40;99.90;;;;;;4973340;28;20647;-70
2023/09/28 04:20:05;;;;;;;5.07;2.13;;;23.20;99.90;;;;;;4993314;28;20179;-69
2023/09/28 04:22:33;;;;;;;4.70;1.80;;;22.90;99.90;;;;;;4945439;28;20645;-69
2023/09/28 04:25:01;;;;;;;6.00;1.70;;;22.80;99.90;;;;;;4989534;28;20321;-69
2023/09/28 04:27:28;;;;;;;3.40;1.60;;;23.40;99.90;;;;;;4991177;28;20214;-70
2023/09/28 04:29:56;;;;;;;7.67;2.20;;;23.90;99.90;;;;;;4994603;28;20186;-68
2023/09/28 04:32:23;;;;;;;5.57;1.67;;;23.90;99.90;;;;;;4994960;28;20189;-69
2023/09/28 04:34:51;;;;;;;7.30;2.30;;;23.90;99.90;;;;;;4983641;28;20187;-69
2023/09/28 04:37:19;;;;;;;7.30;2.27;;;23.90;99.90;;;;;;4989143;28;20281;-70
2023/09/28 04:39:46;;;;;;;6.10;1.43;;;24.20;99.90;;;;;;4995487;28;20180;-70
2023/09/28 04:42:13;;;;;;;4.80;2.00;;;24.30;99.90;;;;;;4995356;28;20241;-69
2023/09/28 04:44:43;;;;;;;5.90;1.83;;;23.90;99.90;;;;;;4994315;28;20186;-70
2023/09/28 04:47:11;;;;;;;7.33;1.97;;;23.90;99.90;;;;;;4984028;28;20243;-70
2023/09/28 04:49:42;;;;;;;3.60;1.37;;;23.60;99.90;;;;;;4975740;28;20210;-70
2023/09/28 04:52:12;;;;;;;6.70;1.90;;;23.80;99.90;;;;;;4975406;28;20221;-70
2023/09/28 04:54:39;;;;;;;7.10;1.50;;;24.10;99.90;;;;;;4958786;28;20211;-70
2023/09/28 04:57:09;;;;;;;3.03;1.67;;;24.20;99.90;;;;;;4984999;28;20597;-68
2023/09/28 04:59:41;;;;;;;3.80;1.37;;;24.40;99.90;;;;;;4994583;28;20221;-67
2023/09/28 05:02:09;;;;;;;4.27;1.40;;;24.20;99.90;;;;;;4989700;28;20221;-69
2023/09/28 05:04:36;;;;;;;2.67;1.33;;;24.10;99.90;;;;;;4975447;28;20182;-67
2023/09/28 05:07:04;;;;;;;2.87;1.20;;;23.90;99.90;;;;;;4983558;28;20182;-68
2023/09/28 05:09:33;;;;;;;4.70;0.90;;;23.90;99.90;;;;;;4976810;28;20621;-68
2023/09/28 05:12:01;;;;;;;3.10;1.53;;;23.90;99.90;;;;;;4994820;28;20188;-69
2023/09/28 05:14:28;;;;;;;2.63;1.27;;;23.80;99.90;;;;;;4994299;28;20257;-68
2023/09/28 05:16:56;;;;;;;2.40;1.63;;;23.60;99.90;;;;;;4986572;28;20269;-69
2023/09/28 05:19:25;;;;;;;4.07;1.30;;;23.50;99.90;;;;;;4975003;28;20269;-72
2023/09/28 05:21:52;;;;;;;5.37;1.60;;;23.60;99.90;;;;;;4974650;28;20273;-68
2023/09/28 05:24:20;;;;;;;1.77;1.10;;;23.70;99.90;;;;;;4974623;28;20233;-68
2023/09/28 05:26:47;;;;;;;1.53;1.00;;;23.70;99.90;;;;;;4963475;28;20612;-68
2023/09/28 05:29:14;;;;;;;1.60;0.93;;;23.70;99.90;;;;;;4994057;28;20186;-68
2023/09/28 05:31:43;;;;;;;3.03;1.00;;;23.70;99.90;;;;;;4977049;28;20209;-68
2023/09/28 05:34:10;;;;;;;2.33;1.00;;;23.80;99.90;;;;;;4974830;28;20189;-68
2023/09/28 05:36:37;;;;;;;3.33;0.90;;;23.60;99.90;;;;;;4978314;28;20182;-69
2023/09/28 05:39:05;;;;;;;2.70;1.10;;;23.50;99.90;;;;;;4994401;28;20179;-69
2023/09/28 05:41:33;;;;;;;3.83;1.20;;;23.30;99.90;;;;;;4994120;28;20806;-68
2023/09/28 05:44:01;;;;;;;3.50;1.23;;;23.60;99.90;;;;;;4975920;28;20190;-68
2023/09/28 05:46:29;;;;;;;3.43;1.40;;;23.50;99.90;;;;;;4990663;28;20187;-69
2023/09/28 05:48:57;;;;;;;2.30;1.30;;;23.60;99.90;;;;;;4975492;28;20567;-68
2023/09/28 05:51:24;;;;;;;3.47;1.30;;;23.70;99.90;;;;;;4993477;28;20171;-68
2023/09/28 05:53:53;;;;;;;1.70;1.10;;;23.70;99.90;;;;;;4993857;28;20644;-68
2023/09/28 05:56:23;;;;;;;2.67;1.20;;;23.80;99.90;;;;;;4989487;28;20226;-69
2023/09/28 05:58:51;;;;;;;1.10;0.90;;;23.70;99.90;;;;;;4973870;28;20218;-68
2023/09/28 06:01:21;;;;;;;1.40;0.90;;;23.50;99.90;;;;;;4974174;28;20189;-68
2023/09/28 06:03:48;;;;;;;3.47;1.10;;;23.30;99.90;;;;;;4974122;28;20172;-70
2023/09/28 06:06:18;;;;;;;3.03;1.10;;;23.40;99.90;;;;;;4975527;28;20194;-69
2023/09/28 06:08:52;;;;;;;2.03;1.47;;;23.50;99.90;;;;;;4993278;28;20254;-70
2023/09/28 06:11:20;;;;;;;3.20;1.50;;;23.50;99.90;;;;;;4993517;28;20257;-69
2023/09/28 06:13:47;;;;;;;3.87;1.20;;;23.30;99.90;;;;;;4993103;28;20194;-69
2023/09/28 06:16:17;;;;;;;2.20;1.23;;;23.30;99.90;;;;;;4991669;28;20175;-67
2023/09/28 06:18:46;;;;;;;1.90;1.10;;;23.40;99.90;;;;;;4973800;28;20546;-68
2023/09/28 06:21:13;;;;;;;2.00;1.10;;;23.40;99.90;;;;;;4974046;28;20664;-68
2023/09/28 06:23:41;;;;;;;3.93;1.40;;;23.40;99.90;;;;;;4993070;28;20182;-68
2023/09/28 06:26:08;;;;;;;2.43;1.10;;;23.50;99.90;;;;;;4975588;28;20186;-67
2023/09/28 06:28:36;;;;;;;1.00;0.90;;;23.60;99.90;;;;;;4973270;28;20219;-69
2023/09/28 06:31:03;;;;;;;2.00;1.30;;;23.60;99.90;;;;;;4973717;28;20276;-69
2023/09/28 06:33:31;;;;;;;2.70;1.30;;;23.60;99.90;;;;;;4973606;28;20187;-69
2023/09/28 06:35:58;;;;;;;1.80;1.30;;;23.70;99.90;;;;;;4973415;28;20190;-69
2023/09/28 06:38:25;;;;;;;2.47;1.13;;;23.80;99.90;;;;;;4992111;28;20191;-70
2023/09/28 06:40:53;;;;;;;2.07;1.03;;;23.60;99.90;;;;;;4993139;28;20261;-69
2023/09/28 06:43:20;;;;;;;1.83;1.10;;;23.70;99.90;;;;;;4974928;28;20511;-70
2023/09/28 06:45:48;;;;;;;3.13;1.33;;;23.80;99.90;;;;;;4992073;28;20189;-70
2023/09/28 06:48:15;;;;;;;3.70;1.20;;;23.80;99.90;;;;;;4975798;28;20583;-70
2023/09/28 06:50:43;;;;;;;4.40;1.43;;;23.80;99.90;;;;;;4973229;28;20590;-68
2023/09/28 06:53:10;;;;;;;2.33;1.30;;;23.70;99.90;;;;;;4983046;28;20217;-69
2023/09/28 06:55:37;;;;;;;3.97;1.50;;;23.40;99.90;;;;;;4993083;28;20178;-69
2023/09/28 06:58:06;;;;;;;2.60;1.40;;;23.10;99.90;;;;;;4976916;28;20675;-70
2023/09/28 07:00:34;;;;;;;4.47;1.60;;;22.90;99.90;;;;;;4956223;28;20194;-69
2023/09/28 07:03:01;;;;;;;2.87;1.90;;;22.80;99.90;;;;;;4955915;28;20198;-70
2023/09/28 07:05:28;;;;;;;2.67;1.20;;;22.60;99.90;;;;;;4972847;28;20183;-70
2023/09/28 07:07:56;;;;;;;3.03;1.90;;;22.40;99.90;;;;;;4986804;28;20226;-70
2023/09/28 07:10:25;;;;;;;2.77;1.70;;;22.30;99.90;;;;;;4992535;28;20181;-70
2023/09/28 07:12:52;;;;;;;2.93;1.67;;;22.20;99.90;;;;;;4977436;28;20671;-68
2023/09/28 07:15:19;;;;;;;3.27;2.10;;;22.10;99.90;;;;;;4986600;28;20200;-68
2023/09/28 07:17:47;;;;;;;2.83;1.83;;;21.90;99.90;;;;;;4958330;28;20649;-69
2023/09/28 07:20:15;;;;;;;2.63;1.57;;;21.80;99.90;;;;;;4958507;28;20564;-68
2023/09/28 07:22:42;;;;;;;2.20;1.47;;;21.70;99.90;;;;;;4974956;28;20666;-68
2023/09/28 07:25:10;;;;;;;2.73;1.73;;;21.60;99.90;;;;;;4989660;28;20233;-68
2023/09/28 07:27:38;;;;;;;4.77;2.27;;;21.50;99.90;;;;;;4986882;28;20278;-68
2023/09/28 07:30:08;;;;;;;5.90;2.27;;;21.40;99.90;;;;;;4992440;28;20198;-68
2023/09/28 07:32:36;;;;;;;2.67;1.83;;;21.30;99.90;;;;;;4990964;28;20194;-70
2023/09/28 07:35:03;;;;;;;3.57;1.93;;;21.20;99.90;;;;;;4991898;28;20189;-69
2023/09/28 07:37:32;;;;;;;4.23;2.30;;;21.10;99.90;;;;;;4973678;28;20265;-67
2023/09/28 07:39:59;;;;;;;4.03;2.43;;;21.10;99.90;;;;;;4972655;28;20519;-68
2023/09/28 07:42:27;;;;;;;4.20;1.83;;;21.00;99.90;;;;;;4972504;28;20186;-67
2023/09/28 07:44:55;;;;;;;3.47;2.27;;;21.00;99.90;;;;;;4973001;28;20186;-68
2023/09/28 07:47:23;;;;;;;6.73;2.60;;;21.00;99.90;;;;;;4956489;28;20246;-68
2023/09/28 07:49:54;;;;;;;8.03;2.70;;;20.90;99.90;;;;;;4972479;28;20175;-69
2023/09/28 07:52:23;;;;;;;6.03;3.07;;;20.90;99.90;;;;;;4973045;28;20616;-69
2023/09/28 07:54:50;;;;;;;5.50;2.83;;;20.70;99.90;;;;;;4972658;28;20195;-69
2023/09/28 07:57:18;;;;;;;3.80;2.40;;;20.50;99.90;;;;;;4987484;28;20192;-69
2023/09/28 07:59:45;;;;;;;5.63;2.73;;;20.40;99.90;;;;;;4978719;28;20276;-69
2023/09/28 08:02:13;;;;;;;5.47;2.47;;;20.40;99.90;;;;;;4996030;28;20189;-70
2023/09/28 08:04:42;;;;;;;5.60;2.83;;;20.30;99.90;;;;;;4995495;28;20640;-69
2023/09/28 08:07:10;;;;;;;2.67;2.10;;;20.20;99.90;;;;;;4979383;28;20196;-69
2023/09/28 08:09:38;;;;;;;4.37;2.90;;;20.10;99.90;;;;;;4958701;28;20233;-69
2023/09/28 08:12:06;;;;;;;6.17;3.30;;;20.00;99.90;;;;;;4975885;28;20183;-69
2023/09/28 08:14:35;;;;;;;6.27;3.53;;;19.90;99.90;;;;;;4959192;28;20194;-69
2023/09/28 08:17:03;;;;;;;7.37;2.93;;;19.90;99.90;;;;;;4976192;28;20199;-69
2023/09/28 08:19:31;;;;;;;4.33;2.93;;;19.90;99.90;;;;;;4958501;28;20199;-68
2023/09/28 08:21:58;;;;;;;5.70;3.23;;;19.80;99.90;;;;;;4957699;28;20645;-69
2023/09/28 08:24:26;;;;;;;5.47;3.30;;;19.80;99.90;;;;;;4976055;28;20314;-69
2023/09/28 08:26:55;;;;;;;10.37;4.00;;;19.70;99.90;;;;;;4975455;28;20187;-69
2023/09/28 08:29:23;;;;;;;7.83;4.50;;;19.60;99.90;;;;;;4958775;28;20198;-69
2023/09/28 08:31:51;;;;;;;8.20;4.43;;;19.60;99.90;;;;;;4976093;28;20182;-69
2023/09/28 08:34:20;;;;;;;7.33;4.07;;;19.60;99.90;;;;;;4975420;28;20202;-68
2023/09/28 08:36:47;;;;;;;8.90;5.00;;;19.70;99.90;;;;;;4975791;28;20187;-67
2023/09/28 08:39:15;;;;;;;7.67;4.40;;;19.70;99.90;;;;;;4975900;28;20184;-69
2023/09/28 08:41:54;;;;;;;10.87;4.77;;;19.70;99.90;;;;;;4975475;28;20179;-68
2023/09/28 08:44:28;;;;;;;10.83;4.70;;;19.80;99.90;;;;;;4958453;28;20665;-68
2023/09/28 08:47:00;;;;;;;8.50;5.63;;;19.70;99.90;;;;;;4975859;28;20196;-69
2023/09/28 08:49:32;;;;;;;10.80;6.47;;;19.60;99.90;;;;;;4974282;28;20295;-68
2023/09/28 08:52:03;;;;;;;8.40;6.37;;;19.60;99.90;;;;;;4975657;28;20537;-68
2023/09/28 08:54:32;;;;;;;12.00;6.13;;;19.60;99.90;;;;;;4969641;28;20217;-68
2023/09/28 08:57:00;;;;;;;12.07;6.53;;;19.50;99.90;;;;;;4994103;28;20197;-67
2023/09/28 08:59:31;;;;;;;13.67;6.00;;;19.40;99.90;;;;;;4978186;28;20670;-69
2023/09/28 09:02:00;;;;;;;10.37;6.17;;;19.30;99.90;;;;;;4993984;28;20678;-69
2023/09/28 09:04:27;;;;;;;13.87;6.20;;;19.30;99.90;;;;;;4995633;28;20722;-70
2023/09/28 09:06:57;;;;;;;10.30;6.83;;;19.30;99.90;;;;;;4995983;28;20336;-68
2023/09/28 09:09:26;;;;;;;11.80;6.53;;;19.20;99.90;;;;;;4995090;28;20193;-68
2023/09/28 09:12:00;;;;;;;8.80;6.57;;;19.10;99.90;;;;;;4995723;28;20190;-67
2023/09/28 09:14:35;;;;;;;16.23;6.97;;;19.10;99.90;;;;;;4995556;28;20189;-70
2023/09/28 09:17:03;;;;;;;13.40;7.20;;;19.00;99.90;;;;;;4989457;28;20194;-68
2023/09/28 09:19:32;;;;;;;9.87;7.17;;;18.90;99.90;;;;;;4958953;28;20654;-66
2023/09/28 09:22:00;;;;;;;9.37;6.93;;;18.90;99.90;;;;;;4976214;28;20239;-67
2023/09/28 09:24:28;;;;;;;11.87;7.40;;;18.80;99.90;;;;;;4975991;28;20702;-69
2023/09/28 09:26:56;;;;;;;14.17;7.20;;;18.70;99.90;;;;;;4976251;28;20187;-68
2023/09/28 09:29:25;;;;;;;13.67;7.00;;;18.60;99.90;;;;;;4959182;28;20181;-68
2023/09/28 09:31:52;;;;;;;12.90;8.20;;;18.60;99.90;;;;;;4982490;28;20241;-68
2023/09/28 09:34:24;;;;;;;12.23;7.90;;;18.50;99.90;;;;;;4995502;28;20186;-68
2023/09/28 09:36:58;;;;;;;9.63;7.63;;;18.50;99.90;;;;;;4994209;28;20186;-68
2023/09/28 09:39:30;;;;;;;11.63;8.43;;;18.50;99.90;;;;;;4995553;28;20212;-68
2023/09/28 09:41:58;;;;;;;10.37;7.23;;;18.50;99.90;;;;;;4995565;28;20179;-70
2023/09/28 09:44:27;;;;;;;10.90;7.57;;;18.40;99.90;;;;;;4995305;28;20179;-69
2023/09/28 09:46:56;;;;;;;9.97;7.40;;;18.30;99.90;;;;;;4993091;28;20298;-69
2023/09/28 09:49:27;;;;;;;10.60;7.77;;;18.20;99.90;;;;;;4990098;28;20246;-69
2023/09/28 09:51:59;;;;;;;11.80;8.30;;;18.00;99.90;;;;;;4975625;28;20538;-70
2023/09/28 09:54:29;;;;;;;10.33;8.17;;;17.90;99.90;;;;;;4975854;28;20213;-68
2023/09/28 09:57:01;;;;;;;11.10;7.67;;;17.80;99.90;;;;;;4975685;28;20188;-67
2023/09/28 09:59:30;;;;;;;11.10;8.03;;;17.60;99.90;;;;;;4975642;28;20586;-69
2023/09/28 10:01:59;;;;;;;12.97;8.50;;;17.50;99.90;;;;;;4988737;28;20198;-69
2023/09/28 10:04:28;;;;;;;11.60;9.70;;;17.40;99.90;;;;;;4994829;28;20179;-67
2023/09/28 10:06:56;;;;;;;16.67;9.17;;;17.40;99.90;;;;;;4967906;28;20194;-71
2023/09/28 10:09:24;;;;;;;11.73;9.50;;;17.40;99.90;;;;;;4961046;28;20280;-70
2023/09/28 10:11:53;;;;;;;15.63;10.97;;;17.40;99.90;;;;;;4990216;28;20716;-70
2023/09/28 10:14:21;;;;;;;17.03;10.90;;;17.30;99.90;;;;;;4975413;28;20508;-67
2023/09/28 10:16:53;;;;;;;13.63;10.67;;;17.30;99.90;;;;;;4975838;28;20175;-68
2023/09/28 10:19:24;;;;;;;17.73;10.60;;;17.30;99.90;;;;;;4974900;28;20191;-69
2023/09/28 10:21:56;;;;;;;15.90;10.70;;;17.30;99.90;;;;;;4960337;28;20268;-67
2023/09/28 10:24:35;;;;;;;21.63;11.47;;;17.30;99.90;;;;;;4959188;28;20278;-69
2023/09/28 10:27:10;;;;;;;15.77;11.13;;;17.30;99.90;;;;;;4979031;28;20198;-67
2023/09/28 10:29:40;;;;;;;14.27;11.20;;;17.20;99.90;;;;;;4963627;28;20190;-69
2023/09/28 10:32:35;;;;;;;17.00;10.10;;;17.20;99.90;;;;;;4975175;28;20187;-68
2023/09/28 10:35:27;;;;;;;17.13;10.57;;;17.10;99.90;;;;;;4991705;28;20252;-68
2023/09/28 10:38:20;;;;;;;18.10;9.70;;;17.00;99.90;;;;;;4994418;28;20190;-69
2023/09/28 10:41:05;;;;;;;15.93;10.17;;;16.90;99.90;;;;;;4970096;28;20232;-67
2023/09/28 10:43:42;;;;;;;19.43;10.70;;;16.80;99.90;;;;;;4957788;28;20271;-67
2023/09/28 10:46:12;;;;;;;16.10;10.93;;;16.70;99.90;;;;;;4957626;28;20183;-67
2023/09/28 10:48:48;;;;;;;12.63;10.03;;;16.70;99.90;;;;;;4974928;28;20240;-67
2023/09/28 10:51:19;;;;;;;17.13;10.73;;;16.60;99.90;;;;;;4957729;28;20213;-68
2023/09/28 10:53:49;;;;;;;15.53;9.50;;;16.60;99.90;;;;;;4991905;28;20198;-69
2023/09/28 10:56:16;;;;;;;18.87;10.93;;;16.60;99.90;;;;;;4994127;28;20174;-68
2023/09/28 10:58:46;;;;;;;16.27;10.30;;;16.60;99.90;;;;;;4994175;28;20540;-68
2023/09/28 11:01:13;;;;;;;16.37;10.30;;;16.50;99.90;;;;;;4994119;28;20179;-67
2023/09/28 11:03:42;;;;;;;17.40;10.23;;;16.50;99.90;;;;;;4991326;28;20186;-68
2023/09/28 11:06:11;;;;;;;15.90;11.07;;;16.50;99.90;;;;;;4992250;28;20190;-68
2023/09/28 11:08:39;;;;;;;13.63;11.03;;;16.40;99.90;;;;;;4977058;28;20277;-68
2023/09/28 11:11:17;;;;;;;12.83;9.70;;;16.40;99.90;;;;;;4993629;28;20194;-70
2023/09/28 11:13:52;;;;;;;18.20;10.50;;;16.30;99.90;;;;;;4993777;28;20190;-69
2023/09/28 11:16:20;;;;;;;18.83;10.63;;;16.30;99.90;;;;;;4959957;28;20194;-69
2023/09/28 11:18:48;;;;;;;14.00;10.53;;;16.20;99.90;;;;;;4976346;28;20698;-68
2023/09/28 11:21:16;;;;;;;15.60;10.90;;;16.20;99.90;;;;;;4974410;28;20226;-69
2023/09/28 11:23:45;;;;;;;16.43;10.97;;;16.10;99.90;;;;;;4973978;28;20192;-68
2023/09/28 11:26:14;;;;;;;14.37;10.40;;;16.00;99.90;;;;;;4974425;28;20229;-68
2023/09/28 11:28:42;;;;;;;14.90;10.83;;;16.00;99.90;;;;;;4974228;28;20257;-68
2023/09/28 11:31:13;;;;;;;21.70;10.63;;;15.90;99.90;;;;;;4974109;28;20241;-68
2023/09/28 11:33:42;;;;;;;19.10;11.63;;;16.00;99.90;;;;;;4993032;28;20197;-68
2023/09/28 11:36:16;;;;;;;16.17;10.93;;;16.00;99.90;;;;;;4997572;28;20189;-68
2023/09/28 11:38:45;;;;;;;13.27;10.90;;;16.00;99.90;;;;;;4980565;28;20179;-68
2023/09/28 11:41:15;;;;;;;23.57;11.60;;;16.00;99.90;;;;;;4996721;28;20183;-67
2023/09/28 11:43:53;;;;;;;18.43;11.63;;;16.00;99.90;;;;;;4979623;28;20186;-68
2023/09/28 11:46:25;;;;;;;13.87;11.63;;;16.00;99.90;;;;;;4997591;28;20170;-67
2023/09/28 11:49:14;;;;;;;18.60;11.90;;;15.90;99.90;;;;;;4997423;28;20213;-66
2023/09/28 11:51:46;;;;;;;16.03;12.90;;;15.80;99.90;;;;;;4997235;28;20190;-66
2023/09/28 11:54:16;;;;;;;25.13;14.73;;;15.80;99.90;;;;;;4996642;28;20208;-67
2023/09/28 11:56:45;;;;;;;19.30;12.50;;;15.80;99.90;;;;;;4997479;28;20261;-66
2023/09/28 11:59:16;;;;;;;23.63;16.67;;;15.70;99.90;;;;;;4996443;28;20178;-67
2023/09/28 12:01:52;;;;;;;23.77;16.27;;;15.70;99.90;;;;;;4996788;28;20655;-67
2023/09/28 12:04:20;;;;;;;18.40;11.60;;;15.70;99.90;;;;;;4977847;28;20191;-68
2023/09/28 12:06:48;;;;;;;18.67;12.53;;;15.70;99.90;;;;;;4976869;28;20185;-68
2023/09/28 12:09:26;;;;;;;15.67;10.40;;;15.70;99.90;;;;;;4977426;28;20223;-68
2023/09/28 12:11:56;;;;;;;14.17;11.50;;;15.60;99.90;;;;;;4986036;28;20178;-68
2023/09/28 12:14:24;;;;;;;14.93;10.63;;;15.60;99.90;;;;;;4977797;28;20554;-67
2023/09/28 12:16:54;;;;;;;18.43;11.73;;;15.50;99.90;;;;;;4977421;28;20179;-68
2023/09/28 12:19:22;;;;;;;22.87;13.73;;;15.50;99.90;;;;;;4977366;28;20191;-67
2023/09/28 12:21:51;;;;;;;15.43;12.03;;;15.40;99.90;;;;;;4977405;28;20187;-68
2023/09/28 12:24:19;;;;;;;14.93;12.83;;;15.40;99.90;;;;;;4996586;28;20289;-69
2023/09/28 12:26:52;;;;;;;19.13;12.47;;;15.30;99.90;;;;;;4996581;28;20525;-68
2023/09/28 12:29:23;;;;;;;21.70;13.57;;;15.30;99.90;;;;;;4979840;28;20229;-68
2023/09/28 12:31:51;;;;;;;16.90;12.43;;;15.30;99.90;;;;;;4996542;28;20166;-67
2023/09/28 12:34:19;;;;;;;17.37;11.93;;;15.30;99.90;;;;;;4996903;28;20202;-67
2023/09/28 12:36:47;;;;;;;15.87;12.13;;;15.30;99.90;;;;;;4996836;28;20616;-69
2023/09/28 12:39:21;;;;;;;21.40;11.90;;;15.20;99.90;;;;;;4994930;28;20191;-67
2023/09/28 12:41:52;;;;;;;12.70;10.33;;;15.20;99.90;;;;;;4996222;28;20217;-68
2023/09/28 12:44:23;;;;;;;15.50;10.63;;;15.20;99.90;;;;;;4976152;28;20545;-67
2023/09/28 12:46:52;;;;;;;14.17;11.00;;;15.20;99.90;;;;;;4977211;28;20668;-67
2023/09/28 12:49:20;;;;;;;17.60;10.53;;;15.20;99.90;;;;;;4976839;28;20305;-68
2023/09/28 12:51:48;;;;;;;16.43;10.90;;;15.20;99.90;;;;;;4976971;28;20195;-67
2023/09/28 12:54:17;;;;;;;13.30;10.90;;;15.20;99.90;;;;;;4976897;28;20219;-68